Aberdeen, New Jersey
Current Conditions -  °F | °C
As of 8:55 PM on Monday 22 Dec 2014 (Local Time) from KLDJ Reporting Station
Light Rain Light Rain  
Wind Chill: 45°   Ceiling: 1200
Heat Index: 49°   Visibility: 10mi
Dew Point: 45°   Wind: 9mph
Humidity: 87%   Direction: 90°E
Pressure: 30.21"   Gusts: NA
Location:  40.4118°N, 74.2499°W
Report Text: KLDJ 230155Z AUTO 09008KT 10SM -RA OVC012 09/07 A3021 RMK AO2 T00940073
Loading
Personal Weather Stations






























Interactive Weather Map New forecast layout! Learn more

10-Day Weather Forecast

Advertisements
Track Severe Weather on mobile